Terminal Aerodrome Forecast
Issued by NWS

Home | Current Version | Previous Version | Text Only | Print | Product List | Glossary On
Versions: 1 2 3 4 5 6 7 8 9 10 11 12 13 14 15 16
000
FTUS43 KILX 281300 AAA
TAFBMI
TAF AMD
KBMI 281329Z 2813/2912 16008KT P6SM BKN120
     FM281500 17015G22KT P6SM SCT120
     FM290000 18012KT P6SM SCT050 BKN150
     FM290600 18012KT P6SM SCT050=

USA.gov is the U.S. government's official web portal to all federal, state and local government web resources and services.